sensor_id;sensor_type;location;lat;lon;timestamp;temperature;humidity
27540;DHT22;15906;52.046;4.724;2023-02-03T00:00:50;9.20;99.90
27540;DHT22;15906;52.046;4.724;2023-02-03T00:03:16;9.20;99.90
27540;DHT22;15906;52.046;4.724;2023-02-03T00:05:42;9.20;99.90
27540;DHT22;15906;52.046;4.724;2023-02-03T00:08:08;9.10;99.90
27540;DHT22;15906;52.046;4.724;2023-02-03T00:10:35;9.10;99.90
27540;DHT22;15906;52.046;4.724;2023-02-03T00:13:02;9.10;99.90
27540;DHT22;15906;52.046;4.724;2023-02-03T00:15:27;9.00;99.90
27540;DHT22;15906;52.046;4.724;2023-02-03T00:17:53;9.00;99.90
27540;DHT22;15906;52.046;4.724;2023-02-03T00:20:18;9.00;99.90
27540;DHT22;15906;52.046;4.724;2023-02-03T00:22:44;9.00;99.90
27540;DHT22;15906;52.046;4.724;2023-02-03T00:25:10;9.00;99.90
27540;DHT22;15906;52.046;4.724;2023-02-03T00:27:35;9.00;99.90
27540;DHT22;15906;52.046;4.724;2023-02-03T00:30:02;9.00;99.90
27540;DHT22;15906;52.046;4.724;2023-02-03T00:32:28;9.10;99.90
27540;DHT22;15906;52.046;4.724;2023-02-03T00:34:54;9.00;99.90
27540;DHT22;15906;52.046;4.724;2023-02-03T00:37:19;9.10;99.90
27540;DHT22;15906;52.046;4.724;2023-02-03T00:39:47;9.10;99.90
27540;DHT22;15906;52.046;4.724;2023-02-03T00:42:13;9.10;99.90
27540;DHT22;15906;52.046;4.724;2023-02-03T00:44:39;9.10;99.90
27540;DHT22;15906;52.046;4.724;2023-02-03T00:47:04;9.20;99.90
27540;DHT22;15906;52.046;4.724;2023-02-03T00:49:30;9.20;99.90
27540;DHT22;15906;52.046;4.724;2023-02-03T00:51:56;9.20;99.90
27540;DHT22;15906;52.046;4.724;2023-02-03T00:54:21;9.10;99.90
27540;DHT22;15906;52.046;4.724;2023-02-03T00:56:47;9.10;99.90
27540;DHT22;15906;52.046;4.724;2023-02-03T00:59:12;9.10;99.90
27540;DHT22;15906;52.046;4.724;2023-02-03T01:01:38;9.10;99.90
27540;DHT22;15906;52.046;4.724;2023-02-03T01:04:03;9.10;99.90
27540;DHT22;15906;52.046;4.724;2023-02-03T01:06:29;9.10;99.90
27540;DHT22;15906;52.046;4.724;2023-02-03T01:08:55;9.20;99.90
27540;DHT22;15906;52.046;4.724;2023-02-03T01:11:22;9.10;99.90
27540;DHT22;15906;52.046;4.724;2023-02-03T01:13:49;9.20;99.90
27540;DHT22;15906;52.046;4.724;2023-02-03T01:16:17;9.20;99.90
27540;DHT22;15906;52.046;4.724;2023-02-03T01:18:43;9.10;99.90
27540;DHT22;15906;52.046;4.724;2023-02-03T01:21:17;9.10;99.90
27540;DHT22;15906;52.046;4.724;2023-02-03T01:23:44;9.10;99.90
27540;DHT22;15906;52.046;4.724;2023-02-03T01:26:13;9.10;99.90
27540;DHT22;15906;52.046;4.724;2023-02-03T01:28:39;9.00;99.90
27540;DHT22;15906;52.046;4.724;2023-02-03T01:31:25;9.10;99.90
27540;DHT22;15906;52.046;4.724;2023-02-03T01:33:52;9.10;99.90
27540;DHT22;15906;52.046;4.724;2023-02-03T01:36:19;9.20;99.90
27540;DHT22;15906;52.046;4.724;2023-02-03T01:38:45;9.20;99.90
27540;DHT22;15906;52.046;4.724;2023-02-03T01:41:23;9.20;99.90
27540;DHT22;15906;52.046;4.724;2023-02-03T01:43:52;9.20;99.90
27540;DHT22;15906;52.046;4.724;2023-02-03T01:46:43;9.20;99.90
27540;DHT22;15906;52.046;4.724;2023-02-03T01:51:38;9.10;99.90
27540;DHT22;15906;52.046;4.724;2023-02-03T01:54:06;9.20;99.90
27540;DHT22;15906;52.046;4.724;2023-02-03T01:56:35;9.30;99.90
27540;DHT22;15906;52.046;4.724;2023-02-03T01:59:03;9.30;99.90
27540;DHT22;15906;52.046;4.724;2023-02-03T02:01:30;9.30;99.90
27540;DHT22;15906;52.046;4.724;2023-02-03T02:03:58;9.30;99.90
27540;DHT22;15906;52.046;4.724;2023-02-03T02:06:26;9.30;99.90
27540;DHT22;15906;52.046;4.724;2023-02-03T02:08:52;9.30;99.90
27540;DHT22;15906;52.046;4.724;2023-02-03T02:11:18;9.40;99.90
27540;DHT22;15906;52.046;4.724;2023-02-03T02:13:46;9.50;99.90
27540;DHT22;15906;52.046;4.724;2023-02-03T02:16:24;9.60;99.90
27540;DHT22;15906;52.046;4.724;2023-02-03T02:22:03;9.70;99.90
27540;DHT22;15906;52.046;4.724;2023-02-03T02:40:55;9.70;99.90
27540;DHT22;15906;52.046;4.724;2023-02-03T02:43:36;9.60;99.90
27540;DHT22;15906;52.046;4.724;2023-02-03T02:46:16;9.60;99.90
27540;DHT22;15906;52.046;4.724;2023-02-03T02:51:15;9.50;99.90
27540;DHT22;15906;52.046;4.724;2023-02-03T02:53:55;9.60;99.90
27540;DHT22;15906;52.046;4.724;2023-02-03T02:56:24;9.50;99.90
27540;DHT22;15906;52.046;4.724;2023-02-03T02:58:50;9.40;99.90
27540;DHT22;15906;52.046;4.724;2023-02-03T03:01:17;9.50;99.90
27540;DHT22;15906;52.046;4.724;2023-02-03T03:03:44;9.50;99.90
27540;DHT22;15906;52.046;4.724;2023-02-03T03:09:08;9.60;99.90
27540;DHT22;15906;52.046;4.724;2023-02-03T03:11:40;9.50;99.90
27540;DHT22;15906;52.046;4.724;2023-02-03T03:14:09;9.40;99.90
27540;DHT22;15906;52.046;4.724;2023-02-03T03:16:37;9.40;99.90
27540;DHT22;15906;52.046;4.724;2023-02-03T03:19:11;9.40;99.90
27540;DHT22;15906;52.046;4.724;2023-02-03T03:21:46;9.40;99.90
27540;DHT22;15906;52.046;4.724;2023-02-03T03:24:16;9.50;99.90
27540;DHT22;15906;52.046;4.724;2023-02-03T03:26:57;9.50;99.90
27540;DHT22;15906;52.046;4.724;2023-02-03T03:29:29;9.60;99.90
27540;DHT22;15906;52.046;4.724;2023-02-03T03:31:56;9.50;99.90
27540;DHT22;15906;52.046;4.724;2023-02-03T03:34:21;9.50;99.90
27540;DHT22;15906;52.046;4.724;2023-02-03T03:36:57;9.60;99.90
27540;DHT22;15906;52.046;4.724;2023-02-03T03:39:50;9.60;99.90
27540;DHT22;15906;52.046;4.724;2023-02-03T03:42:28;9.60;99.90
27540;DHT22;15906;52.046;4.724;2023-02-03T03:45:02;9.60;99.90
27540;DHT22;15906;52.046;4.724;2023-02-03T03:47:50;9.70;99.90
27540;DHT22;15906;52.046;4.724;2023-02-03T03:50:24;9.60;99.90
27540;DHT22;15906;52.046;4.724;2023-02-03T03:52:52;9.60;99.90
27540;DHT22;15906;52.046;4.724;2023-02-03T03:55:19;9.60;99.90
27540;DHT22;15906;52.046;4.724;2023-02-03T03:58:02;9.70;99.90
27540;DHT22;15906;52.046;4.724;2023-02-03T04:00:31;9.70;99.90
27540;DHT22;15906;52.046;4.724;2023-02-03T04:03:01;9.60;99.90
27540;DHT22;15906;52.046;4.724;2023-02-03T04:05:30;9.60;99.90
27540;DHT22;15906;52.046;4.724;2023-02-03T04:07:56;9.70;99.90
27540;DHT22;15906;52.046;4.724;2023-02-03T04:10:36;9.70;99.90
27540;DHT22;15906;52.046;4.724;2023-02-03T04:13:03;9.70;99.90
27540;DHT22;15906;52.046;4.724;2023-02-03T04:15:29;9.70;99.90
27540;DHT22;15906;52.046;4.724;2023-02-03T04:17:55;9.70;99.90
27540;DHT22;15906;52.046;4.724;2023-02-03T04:20:24;9.70;99.90
27540;DHT22;15906;52.046;4.724;2023-02-03T04:22:50;9.70;99.90
27540;DHT22;15906;52.046;4.724;2023-02-03T04:25:15;9.60;99.90
27540;DHT22;15906;52.046;4.724;2023-02-03T04:27:41;9.60;99.90
27540;DHT22;15906;52.046;4.724;2023-02-03T04:30:07;9.60;99.90
27540;DHT22;15906;52.046;4.724;2023-02-03T04:32:33;9.60;99.90
27540;DHT22;15906;52.046;4.724;2023-02-03T04:35:00;9.70;99.90
27540;DHT22;15906;52.046;4.724;2023-02-03T04:37:25;9.60;99.90
27540;DHT22;15906;52.046;4.724;2023-02-03T04:39:52;9.80;99.90
27540;DHT22;15906;52.046;4.724;2023-02-03T04:42:18;9.70;99.90
27540;DHT22;15906;52.046;4.724;2023-02-03T04:44:44;9.70;99.90
27540;DHT22;15906;52.046;4.724;2023-02-03T04:47:09;9.70;99.90
27540;DHT22;15906;52.046;4.724;2023-02-03T04:49:35;9.60;99.90
27540;DHT22;15906;52.046;4.724;2023-02-03T04:52:00;9.70;99.90
27540;DHT22;15906;52.046;4.724;2023-02-03T04:54:26;9.60;99.90
27540;DHT22;15906;52.046;4.724;2023-02-03T04:56:51;9.60;99.90
27540;DHT22;15906;52.046;4.724;2023-02-03T04:59:17;9.60;99.90
27540;DHT22;15906;52.046;4.724;2023-02-03T05:01:42;9.70;99.90
27540;DHT22;15906;52.046;4.724;2023-02-03T05:04:08;9.60;99.90
27540;DHT22;15906;52.046;4.724;2023-02-03T05:06:34;9.70;99.90
27540;DHT22;15906;52.046;4.724;2023-02-03T05:08:59;9.80;99.90
27540;DHT22;15906;52.046;4.724;2023-02-03T05:11:25;9.80;99.90
27540;DHT22;15906;52.046;4.724;2023-02-03T05:13:51;9.80;99.90
27540;DHT22;15906;52.046;4.724;2023-02-03T05:16:17;9.70;99.90
27540;DHT22;15906;52.046;4.724;2023-02-03T05:18:42;9.70;99.90
27540;DHT22;15906;52.046;4.724;2023-02-03T05:21:08;9.70;99.90
27540;DHT22;15906;52.046;4.724;2023-02-03T05:23:34;9.70;99.90
27540;DHT22;15906;52.046;4.724;2023-02-03T05:25:59;9.70;99.90
27540;DHT22;15906;52.046;4.724;2023-02-03T05:28:25;9.70;99.90
27540;DHT22;15906;52.046;4.724;2023-02-03T05:30:51;9.70;99.90
27540;DHT22;15906;52.046;4.724;2023-02-03T05:33:16;9.70;99.90
27540;DHT22;15906;52.046;4.724;2023-02-03T05:35:42;9.70;99.90
27540;DHT22;15906;52.046;4.724;2023-02-03T05:38:07;9.60;99.90
27540;DHT22;15906;52.046;4.724;2023-02-03T05:40:33;9.60;99.90
27540;DHT22;15906;52.046;4.724;2023-02-03T05:43:17;9.60;99.90
27540;DHT22;15906;52.046;4.724;2023-02-03T05:45:43;9.70;99.90
27540;DHT22;15906;52.046;4.724;2023-02-03T05:48:10;9.60;99.90
27540;DHT22;15906;52.046;4.724;2023-02-03T05:50:36;9.60;99.90
27540;DHT22;15906;52.046;4.724;2023-02-03T05:53:03;9.50;99.90
27540;DHT22;15906;52.046;4.724;2023-02-03T05:55:30;9.50;99.90
27540;DHT22;15906;52.046;4.724;2023-02-03T05:57:56;9.50;99.90
27540;DHT22;15906;52.046;4.724;2023-02-03T06:00:22;9.50;99.90
27540;DHT22;15906;52.046;4.724;2023-02-03T06:02:56;9.60;99.90
27540;DHT22;15906;52.046;4.724;2023-02-03T06:05:23;9.60;99.90
27540;DHT22;15906;52.046;4.724;2023-02-03T06:07:49;9.60;99.90
27540;DHT22;15906;52.046;4.724;2023-02-03T06:10:15;9.60;99.90
27540;DHT22;15906;52.046;4.724;2023-02-03T06:12:41;9.50;99.90
27540;DHT22;15906;52.046;4.724;2023-02-03T06:15:08;9.50;99.90
27540;DHT22;15906;52.046;4.724;2023-02-03T06:17:33;9.40;99.90
27540;DHT22;15906;52.046;4.724;2023-02-03T06:20:06;9.50;99.90
27540;DHT22;15906;52.046;4.724;2023-02-03T06:22:32;9.50;99.90
27540;DHT22;15906;52.046;4.724;2023-02-03T06:24:58;9.50;99.90
27540;DHT22;15906;52.046;4.724;2023-02-03T06:27:23;9.40;99.90
27540;DHT22;15906;52.046;4.724;2023-02-03T06:29:49;9.30;99.90
27540;DHT22;15906;52.046;4.724;2023-02-03T06:32:15;9.40;99.90
27540;DHT22;15906;52.046;4.724;2023-02-03T06:34:40;9.40;99.90
27540;DHT22;15906;52.046;4.724;2023-02-03T06:37:06;9.40;99.90
27540;DHT22;15906;52.046;4.724;2023-02-03T06:39:31;9.40;99.90
27540;DHT22;15906;52.046;4.724;2023-02-03T06:41:57;9.40;99.90
27540;DHT22;15906;52.046;4.724;2023-02-03T06:44:22;9.30;99.90
27540;DHT22;15906;52.046;4.724;2023-02-03T06:46:48;9.40;99.90
27540;DHT22;15906;52.046;4.724;2023-02-03T06:49:15;9.40;99.90
27540;DHT22;15906;52.046;4.724;2023-02-03T06:51:41;9.40;99.90
27540;DHT22;15906;52.046;4.724;2023-02-03T06:54:07;9.40;99.90
27540;DHT22;15906;52.046;4.724;2023-02-03T06:56:33;9.50;99.90
27540;DHT22;15906;52.046;4.724;2023-02-03T06:58:58;9.50;99.90
27540;DHT22;15906;52.046;4.724;2023-02-03T07:01:24;9.60;99.90
27540;DHT22;15906;52.046;4.724;2023-02-03T07:03:50;9.50;99.90
27540;DHT22;15906;52.046;4.724;2023-02-03T07:06:16;9.50;99.90
27540;DHT22;15906;52.046;4.724;2023-02-03T07:08:42;9.50;99.90
27540;DHT22;15906;52.046;4.724;2023-02-03T07:11:07;9.50;99.90
27540;DHT22;15906;52.046;4.724;2023-02-03T07:13:33;9.50;99.90
27540;DHT22;15906;52.046;4.724;2023-02-03T07:15:58;9.60;99.90
27540;DHT22;15906;52.046;4.724;2023-02-03T07:18:24;9.50;99.90
27540;DHT22;15906;52.046;4.724;2023-02-03T07:20:51;9.60;99.90
27540;DHT22;15906;52.046;4.724;2023-02-03T07:23:17;9.60;99.90
27540;DHT22;15906;52.046;4.724;2023-02-03T07:25:42;9.60;99.90
27540;DHT22;15906;52.046;4.724;2023-02-03T07:28:08;9.60;99.90
27540;DHT22;15906;52.046;4.724;2023-02-03T07:30:34;9.60;99.90
27540;DHT22;15906;52.046;4.724;2023-02-03T07:32:59;9.60;99.90
27540;DHT22;15906;52.046;4.724;2023-02-03T07:35:25;9.70;99.90
27540;DHT22;15906;52.046;4.724;2023-02-03T07:37:51;9.60;99.90
27540;DHT22;15906;52.046;4.724;2023-02-03T07:40:17;9.60;99.90
27540;DHT22;15906;52.046;4.724;2023-02-03T07:42:47;9.60;99.90
27540;DHT22;15906;52.046;4.724;2023-02-03T07:45:14;9.60;99.90
27540;DHT22;15906;52.046;4.724;2023-02-03T07:47:41;9.60;99.90
27540;DHT22;15906;52.046;4.724;2023-02-03T07:50:08;9.70;99.90
27540;DHT22;15906;52.046;4.724;2023-02-03T07:52:33;9.70;99.90
27540;DHT22;15906;52.046;4.724;2023-02-03T07:54:59;9.70;99.90
27540;DHT22;15906;52.046;4.724;2023-02-03T07:57:25;9.60;99.90
27540;DHT22;15906;52.046;4.724;2023-02-03T07:59:51;9.60;99.90
27540;DHT22;15906;52.046;4.724;2023-02-03T08:02:16;9.60;99.90
27540;DHT22;15906;52.046;4.724;2023-02-03T08:04:42;9.60;99.90
27540;DHT22;15906;52.046;4.724;2023-02-03T08:07:07;9.60;99.90
27540;DHT22;15906;52.046;4.724;2023-02-03T08:09:33;9.70;99.90
27540;DHT22;15906;52.046;4.724;2023-02-03T08:11:58;9.60;99.90
27540;DHT22;15906;52.046;4.724;2023-02-03T08:14:24;9.70;99.90
27540;DHT22;15906;52.046;4.724;2023-02-03T08:16:49;9.70;99.90
27540;DHT22;15906;52.046;4.724;2023-02-03T08:19:16;9.70;99.90
27540;DHT22;15906;52.046;4.724;2023-02-03T08:21:41;9.60;99.90
27540;DHT22;15906;52.046;4.724;2023-02-03T08:24:07;9.60;99.90
27540;DHT22;15906;52.046;4.724;2023-02-03T08:26:35;9.70;99.90
27540;DHT22;15906;52.046;4.724;2023-02-03T08:29:00;9.60;99.90
27540;DHT22;15906;52.046;4.724;2023-02-03T08:31:26;9.70;99.90
27540;DHT22;15906;52.046;4.724;2023-02-03T08:33:51;9.70;99.90
27540;DHT22;15906;52.046;4.724;2023-02-03T08:36:17;9.70;99.90
27540;DHT22;15906;52.046;4.724;2023-02-03T08:38:43;9.80;99.90
27540;DHT22;15906;52.046;4.724;2023-02-03T08:41:10;9.80;99.90
27540;DHT22;15906;52.046;4.724;2023-02-03T08:43:36;9.70;99.90
27540;DHT22;15906;52.046;4.724;2023-02-03T08:46:04;9.70;99.90
27540;DHT22;15906;52.046;4.724;2023-02-03T08:48:30;9.70;99.90
27540;DHT22;15906;52.046;4.724;2023-02-03T08:50:55;9.80;99.90
27540;DHT22;15906;52.046;4.724;2023-02-03T08:53:21;9.80;99.90
27540;DHT22;15906;52.046;4.724;2023-02-03T08:55:46;9.80;99.90
27540;DHT22;15906;52.046;4.724;2023-02-03T08:58:12;9.80;99.90
27540;DHT22;15906;52.046;4.724;2023-02-03T09:00:37;9.80;99.90
27540;DHT22;15906;52.046;4.724;2023-02-03T09:03:03;9.80;99.90
27540;DHT22;15906;52.046;4.724;2023-02-03T09:05:30;9.90;99.90
27540;DHT22;15906;52.046;4.724;2023-02-03T09:07:55;9.90;99.90
27540;DHT22;15906;52.046;4.724;2023-02-03T09:10:21;9.90;99.90
27540;DHT22;15906;52.046;4.724;2023-02-03T09:12:46;9.90;99.90
27540;DHT22;15906;52.046;4.724;2023-02-03T09:15:12;9.90;99.90
27540;DHT22;15906;52.046;4.724;2023-02-03T09:17:38;10.10;99.90
27540;DHT22;15906;52.046;4.724;2023-02-03T09:20:04;10.10;99.90
27540;DHT22;15906;52.046;4.724;2023-02-03T09:22:29;10.00;99.90
27540;DHT22;15906;52.046;4.724;2023-02-03T09:24:55;10.00;99.90
27540;DHT22;15906;52.046;4.724;2023-02-03T09:27:20;10.10;99.90
27540;DHT22;15906;52.046;4.724;2023-02-03T09:29:46;10.20;99.90
27540;DHT22;15906;52.046;4.724;2023-02-03T09:32:12;10.20;99.90
27540;DHT22;15906;52.046;4.724;2023-02-03T09:34:37;10.10;99.90
27540;DHT22;15906;52.046;4.724;2023-02-03T09:37:06;10.20;99.90
27540;DHT22;15906;52.046;4.724;2023-02-03T09:39:31;10.20;99.90
27540;DHT22;15906;52.046;4.724;2023-02-03T09:44:53;10.30;99.90
27540;DHT22;15906;52.046;4.724;2023-02-03T09:47:27;10.30;99.90
27540;DHT22;15906;52.046;4.724;2023-02-03T09:49:56;10.40;99.90
27540;DHT22;15906;52.046;4.724;2023-02-03T09:52:28;10.50;99.90
27540;DHT22;15906;52.046;4.724;2023-02-03T09:57:43;10.60;99.90
27540;DHT22;15906;52.046;4.724;2023-02-03T10:00:40;10.60;99.90
27540;DHT22;15906;52.046;4.724;2023-02-03T10:06:06;10.60;99.90
27540;DHT22;15906;52.046;4.724;2023-02-03T10:11:53;10.70;99.90
27540;DHT22;15906;52.046;4.724;2023-02-03T10:17:29;10.60;99.90
27540;DHT22;15906;52.046;4.724;2023-02-03T10:22:29;10.60;99.90
27540;DHT22;15906;52.046;4.724;2023-02-03T10:25:04;10.60;99.90
27540;DHT22;15906;52.046;4.724;2023-02-03T10:27:32;10.60;99.90
27540;DHT22;15906;52.046;4.724;2023-02-03T10:30:19;10.60;99.90
27540;DHT22;15906;52.046;4.724;2023-02-03T10:32:49;10.70;99.90
27540;DHT22;15906;52.046;4.724;2023-02-03T10:35:17;10.70;99.90
27540;DHT22;15906;52.046;4.724;2023-02-03T10:37:45;10.70;99.90
27540;DHT22;15906;52.046;4.724;2023-02-03T10:40:14;10.70;99.90
27540;DHT22;15906;52.046;4.724;2023-02-03T10:42:42;10.80;99.90
27540;DHT22;15906;52.046;4.724;2023-02-03T10:45:29;10.70;99.90
27540;DHT22;15906;52.046;4.724;2023-02-03T10:47:57;10.70;99.90
27540;DHT22;15906;52.046;4.724;2023-02-03T10:50:26;10.70;99.90
27540;DHT22;15906;52.046;4.724;2023-02-03T10:55:44;10.90;99.90
27540;DHT22;15906;52.046;4.724;2023-02-03T10:58:31;10.80;99.90
27540;DHT22;15906;52.046;4.724;2023-02-03T11:01:10;10.80;99.90
27540;DHT22;15906;52.046;4.724;2023-02-03T11:03:40;10.80;99.90
27540;DHT22;15906;52.046;4.724;2023-02-03T11:06:15;10.80;99.90
27540;DHT22;15906;52.046;4.724;2023-02-03T11:08:45;10.80;99.90
27540;DHT22;15906;52.046;4.724;2023-02-03T11:11:28;10.90;99.90
27540;DHT22;15906;52.046;4.724;2023-02-03T11:16:31;10.90;99.90
27540;DHT22;15906;52.046;4.724;2023-02-03T11:19:03;10.80;99.90
27540;DHT22;15906;52.046;4.724;2023-02-03T11:21:41;10.90;99.90
27540;DHT22;15906;52.046;4.724;2023-02-03T11:24:23;10.90;99.90
27540;DHT22;15906;52.046;4.724;2023-02-03T11:26:58;10.90;99.90
27540;DHT22;15906;52.046;4.724;2023-02-03T11:29:33;11.00;99.90
27540;DHT22;15906;52.046;4.724;2023-02-03T11:32:01;11.00;99.90
27540;DHT22;15906;52.046;4.724;2023-02-03T11:34:28;11.00;99.90
27540;DHT22;15906;52.046;4.724;2023-02-03T11:36:55;10.90;99.90
27540;DHT22;15906;52.046;4.724;2023-02-03T11:39:25;10.80;99.90
27540;DHT22;15906;52.046;4.724;2023-02-03T11:41:52;10.80;99.90
27540;DHT22;15906;52.046;4.724;2023-02-03T11:44:23;10.80;99.90
27540;DHT22;15906;52.046;4.724;2023-02-03T11:47:08;10.90;99.90
27540;DHT22;15906;52.046;4.724;2023-02-03T11:49:53;10.90;99.90
27540;DHT22;15906;52.046;4.724;2023-02-03T11:52:40;10.90;99.90
27540;DHT22;15906;52.046;4.724;2023-02-03T12:09:18;11.00;99.90
27540;DHT22;15906;52.046;4.724;2023-02-03T12:14:21;10.90;99.90
27540;DHT22;15906;52.046;4.724;2023-02-03T12:22:32;10.90;99.90
27540;DHT22;15906;52.046;4.724;2023-02-03T12:30:26;10.90;99.90
27540;DHT22;15906;52.046;4.724;2023-02-03T12:33:03;10.90;99.90
27540;DHT22;15906;52.046;4.724;2023-02-03T12:35:38;10.90;99.90
27540;DHT22;15906;52.046;4.724;2023-02-03T12:40:39;10.90;99.90
27540;DHT22;15906;52.046;4.724;2023-02-03T12:43:26;11.10;99.90
27540;DHT22;15906;52.046;4.724;2023-02-03T12:45:59;11.10;99.90
27540;DHT22;15906;52.046;4.724;2023-02-03T12:51:11;11.00;99.90
27540;DHT22;15906;52.046;4.724;2023-02-03T12:53:41;11.10;99.90
27540;DHT22;15906;52.046;4.724;2023-02-03T12:56:14;11.10;99.90
27540;DHT22;15906;52.046;4.724;2023-02-03T12:58:47;11.20;99.90
27540;DHT22;15906;52.046;4.724;2023-02-03T13:01:39;11.10;99.90
27540;DHT22;15906;52.046;4.724;2023-02-03T13:05:04;11.00;99.90
27540;DHT22;15906;52.046;4.724;2023-02-03T13:07:29;10.90;99.90
27540;DHT22;15906;52.046;4.724;2023-02-03T13:10:15;11.00;99.90
27540;DHT22;15906;52.046;4.724;2023-02-03T13:12:46;11.00;99.90
27540;DHT22;15906;52.046;4.724;2023-02-03T13:23:56;10.60;99.90
27540;DHT22;15906;52.046;4.724;2023-02-03T13:43:17;10.10;99.90
27540;DHT22;15906;52.046;4.724;2023-02-03T13:45:49;10.00;99.90
27540;DHT22;15906;52.046;4.724;2023-02-03T13:48:21;10.00;99.90
27540;DHT22;15906;52.046;4.724;2023-02-03T13:50:49;9.80;99.90
27540;DHT22;15906;52.046;4.724;2023-02-03T13:53:22;9.80;99.90
27540;DHT22;15906;52.046;4.724;2023-02-03T13:56:00;9.80;99.90
27540;DHT22;15906;52.046;4.724;2023-02-03T13:58:37;9.70;99.90
27540;DHT22;15906;52.046;4.724;2023-02-03T14:03:49;9.80;99.90
27540;DHT22;15906;52.046;4.724;2023-02-03T14:09:19;9.80;99.90
27540;DHT22;15906;52.046;4.724;2023-02-03T14:11:45;9.70;99.90
27540;DHT22;15906;52.046;4.724;2023-02-03T14:16:43;9.60;99.90
27540;DHT22;15906;52.046;4.724;2023-02-03T14:21:58;9.80;99.90
27540;DHT22;15906;52.046;4.724;2023-02-03T14:24:40;9.70;99.90
27540;DHT22;15906;52.046;4.724;2023-02-03T14:27:24;9.80;99.90
27540;DHT22;15906;52.046;4.724;2023-02-03T14:30:09;9.70;99.90
27540;DHT22;15906;52.046;4.724;2023-02-03T14:33:02;9.70;99.90
27540;DHT22;15906;52.046;4.724;2023-02-03T14:35:32;9.70;99.90
27540;DHT22;15906;52.046;4.724;2023-02-03T14:38:07;9.60;99.90
27540;DHT22;15906;52.046;4.724;2023-02-03T14:40:52;9.60;99.90
27540;DHT22;15906;52.046;4.724;2023-02-03T14:46:15;9.70;99.90
27540;DHT22;15906;52.046;4.724;2023-02-03T14:48:55;9.70;99.90
27540;DHT22;15906;52.046;4.724;2023-02-03T15:02:31;9.80;99.90
27540;DHT22;15906;52.046;4.724;2023-02-03T15:07:41;9.80;99.90
27540;DHT22;15906;52.046;4.724;2023-02-03T15:10:18;9.80;99.90
27540;DHT22;15906;52.046;4.724;2023-02-03T15:12:49;9.80;99.90
27540;DHT22;15906;52.046;4.724;2023-02-03T15:17:47;9.90;99.90
27540;DHT22;15906;52.046;4.724;2023-02-03T15:20:35;10.00;99.90
27540;DHT22;15906;52.046;4.724;2023-02-03T15:23:23;9.90;99.90
27540;DHT22;15906;52.046;4.724;2023-02-03T15:25:53;10.00;99.90
27540;DHT22;15906;52.046;4.724;2023-02-03T15:28:20;10.00;99.90
27540;DHT22;15906;52.046;4.724;2023-02-03T15:31:15;10.00;99.90
27540;DHT22;15906;52.046;4.724;2023-02-03T15:33:38;9.90;99.90
27540;DHT22;15906;52.046;4.724;2023-02-03T15:36:22;9.90;99.90
27540;DHT22;15906;52.046;4.724;2023-02-03T15:38:57;9.80;99.90
27540;DHT22;15906;52.046;4.724;2023-02-03T15:41:25;9.80;99.90
27540;DHT22;15906;52.046;4.724;2023-02-03T15:43:57;9.80;99.90
27540;DHT22;15906;52.046;4.724;2023-02-03T15:46:27;9.80;99.90
27540;DHT22;15906;52.046;4.724;2023-02-03T15:49:02;9.70;99.90
27540;DHT22;15906;52.046;4.724;2023-02-03T15:51:33;9.80;99.90
27540;DHT22;15906;52.046;4.724;2023-02-03T15:54:10;9.70;99.90
27540;DHT22;15906;52.046;4.724;2023-02-03T15:59:37;9.70;99.90
27540;DHT22;15906;52.046;4.724;2023-02-03T16:02:21;9.60;99.90
27540;DHT22;15906;52.046;4.724;2023-02-03T16:04:51;9.80;99.90
27540;DHT22;15906;52.046;4.724;2023-02-03T16:07:24;9.60;99.90
27540;DHT22;15906;52.046;4.724;2023-02-03T16:09:53;9.60;99.90
27540;DHT22;15906;52.046;4.724;2023-02-03T16:12:28;9.60;99.90
27540;DHT22;15906;52.046;4.724;2023-02-03T16:14:55;9.60;99.90
27540;DHT22;15906;52.046;4.724;2023-02-03T16:19:48;9.60;99.90
27540;DHT22;15906;52.046;4.724;2023-02-03T16:22:29;9.50;99.90
27540;DHT22;15906;52.046;4.724;2023-02-03T16:25:03;9.50;99.90
27540;DHT22;15906;52.046;4.724;2023-02-03T16:27:36;9.50;99.90
27540;DHT22;15906;52.046;4.724;2023-02-03T16:35:54;9.40;99.90
27540;DHT22;15906;52.046;4.724;2023-02-03T16:38:44;9.40;99.90
27540;DHT22;15906;52.046;4.724;2023-02-03T16:41:28;9.30;99.90
27540;DHT22;15906;52.046;4.724;2023-02-03T16:44:14;9.20;99.90
27540;DHT22;15906;52.046;4.724;2023-02-03T16:46:58;9.10;99.90
27540;DHT22;15906;52.046;4.724;2023-02-03T16:49:42;9.10;99.90
27540;DHT22;15906;52.046;4.724;2023-02-03T16:52:26;9.00;99.90
27540;DHT22;15906;52.046;4.724;2023-02-03T16:54:51;9.10;99.90
27540;DHT22;15906;52.046;4.724;2023-02-03T16:57:17;9.00;99.90
27540;DHT22;15906;52.046;4.724;2023-02-03T16:59:43;9.00;99.90
27540;DHT22;15906;52.046;4.724;2023-02-03T17:02:21;9.00;99.90
27540;DHT22;15906;52.046;4.724;2023-02-03T17:04:47;9.10;99.90
27540;DHT22;15906;52.046;4.724;2023-02-03T17:07:12;9.10;99.90
27540;DHT22;15906;52.046;4.724;2023-02-03T17:09:38;9.20;99.90
27540;DHT22;15906;52.046;4.724;2023-02-03T17:12:03;9.10;99.90
27540;DHT22;15906;52.046;4.724;2023-02-03T17:14:29;9.20;99.90
27540;DHT22;15906;52.046;4.724;2023-02-03T17:16:55;9.10;99.90
27540;DHT22;15906;52.046;4.724;2023-02-03T17:19:21;9.00;99.90
27540;DHT22;15906;52.046;4.724;2023-02-03T17:21:46;9.10;99.90
27540;DHT22;15906;52.046;4.724;2023-02-03T17:24:13;9.00;99.90
27540;DHT22;15906;52.046;4.724;2023-02-03T17:26:38;9.00;99.90
27540;DHT22;15906;52.046;4.724;2023-02-03T17:29:04;9.00;99.90
27540;DHT22;15906;52.046;4.724;2023-02-03T17:31:30;9.10;99.90
27540;DHT22;15906;52.046;4.724;2023-02-03T17:33:55;9.00;99.90
27540;DHT22;15906;52.046;4.724;2023-02-03T17:36:22;9.00;99.90
27540;DHT22;15906;52.046;4.724;2023-02-03T17:38:51;9.00;99.90
27540;DHT22;15906;52.046;4.724;2023-02-03T17:41:21;9.00;99.90
27540;DHT22;15906;52.046;4.724;2023-02-03T17:43:48;9.00;99.90
27540;DHT22;15906;52.046;4.724;2023-02-03T17:46:23;9.10;99.90
27540;DHT22;15906;52.046;4.724;2023-02-03T17:48:49;9.00;99.90
27540;DHT22;15906;52.046;4.724;2023-02-03T17:51:17;9.00;99.90
27540;DHT22;15906;52.046;4.724;2023-02-03T17:53:43;9.10;99.90
27540;DHT22;15906;52.046;4.724;2023-02-03T17:56:12;9.10;99.90
27540;DHT22;15906;52.046;4.724;2023-02-03T17:58:39;9.10;99.90
27540;DHT22;15906;52.046;4.724;2023-02-03T18:01:16;9.10;99.90
27540;DHT22;15906;52.046;4.724;2023-02-03T18:03:43;9.20;99.90
27540;DHT22;15906;52.046;4.724;2023-02-03T18:06:08;9.10;99.90
27540;DHT22;15906;52.046;4.724;2023-02-03T18:08:34;9.10;99.90
27540;DHT22;15906;52.046;4.724;2023-02-03T18:11:00;9.20;99.90
27540;DHT22;15906;52.046;4.724;2023-02-03T18:13:27;9.10;99.90
27540;DHT22;15906;52.046;4.724;2023-02-03T18:15:55;9.10;99.90
27540;DHT22;15906;52.046;4.724;2023-02-03T18:18:20;9.10;99.90
27540;DHT22;15906;52.046;4.724;2023-02-03T18:20:47;9.10;99.90
27540;DHT22;15906;52.046;4.724;2023-02-03T18:23:13;9.10;99.90
27540;DHT22;15906;52.046;4.724;2023-02-03T18:25:39;9.10;99.90
27540;DHT22;15906;52.046;4.724;2023-02-03T18:28:04;9.20;99.90